createdAt,value
2018-11-23T00:00:00.640Z,84.8
2018-11-23T00:05:00.644Z,84.8
2018-11-23T00:10:00.788Z,84.7
2018-11-23T00:15:00.970Z,85.2
2018-11-23T00:20:00.640Z,85.1
2018-11-23T00:25:00.793Z,85.6
2018-11-23T00:30:00.536Z,85.5
2018-11-23T00:35:00.708Z,86.1
2018-11-23T00:40:00.548Z,86.9
2018-11-23T00:45:00.465Z,86.9
2018-11-23T00:50:00.478Z,86.5
2018-11-23T00:55:00.538Z,86.8
2018-11-23T01:00:00.808Z,87.1
2018-11-23T01:05:00.796Z,87.6
2018-11-23T01:10:00.567Z,87.4
2018-11-23T01:15:00.543Z,87.8
2018-11-23T01:20:00.624Z,87.4
2018-11-23T01:25:00.458Z,88.7
2018-11-23T01:30:00.664Z,88.9
2018-11-23T01:35:00.513Z,89.2
2018-11-23T01:40:00.712Z,89.5
2018-11-23T01:45:00.684Z,89
2018-11-23T01:50:00.486Z,88.5
2018-11-23T01:55:00.420Z,87.8
2018-11-23T02:00:00.523Z,88.1
2018-11-23T02:05:00.970Z,87.6
2018-11-23T02:10:00.471Z,88.5
2018-11-23T02:15:00.424Z,88.5
2018-11-23T02:20:00.482Z,89.5
2018-11-23T02:25:00.626Z,89.8
2018-11-23T02:30:00.643Z,89.5
2018-11-23T02:35:00.624Z,89.3
2018-11-23T02:40:00.519Z,88.4
2018-11-23T02:45:00.519Z,88.7
2018-11-23T02:50:00.707Z,88.7
2018-11-23T02:55:00.534Z,88.3
2018-11-23T03:00:00.582Z,88
2018-11-23T03:05:00.408Z,87.9
2018-11-23T03:10:00.491Z,87.5
2018-11-23T03:15:00.728Z,87.7
2018-11-23T03:20:00.526Z,87.2
2018-11-23T03:25:00.550Z,87.8
2018-11-23T03:30:00.393Z,87.5
2018-11-23T03:35:00.476Z,87.3
2018-11-23T03:40:00.477Z,87.6
2018-11-23T03:45:00.506Z,88
2018-11-23T03:50:00.383Z,88.8
2018-11-23T03:55:00.365Z,87.7
2018-11-23T04:00:00.397Z,87.7
2018-11-23T04:05:00.339Z,88.1
2018-11-23T04:10:00.144Z,88.5
2018-11-23T04:15:00.511Z,88.5
2018-11-23T04:20:01.037Z,88.4
2018-11-23T04:25:00.355Z,87.6
2018-11-23T04:30:00.711Z,87.6
2018-11-23T04:35:00.070Z,87.9
2018-11-23T04:40:00.374Z,87.3
2018-11-23T04:45:00.308Z,86.8
2018-11-23T04:50:01.343Z,87.4
2018-11-23T04:55:00.015Z,87.3
2018-11-23T05:00:00.309Z,88.2
2018-11-23T05:05:00.387Z,89.5
2018-11-23T05:10:00.397Z,89.3
2018-11-23T05:15:00.389Z,89
2018-11-23T05:20:00.335Z,88.6
2018-11-23T05:25:00.551Z,88.5
2018-11-23T05:30:00.809Z,88
2018-11-23T05:35:00.101Z,88.5
2018-11-23T05:40:00.657Z,89.1
2018-11-23T05:45:00.114Z,88.5
2018-11-23T05:50:00.348Z,89.3
2018-11-23T05:55:00.145Z,89.6
2018-11-23T06:00:00.389Z,89.3
2018-11-23T06:05:00.081Z,88.8
2018-11-23T06:10:00.050Z,88.6
2018-11-23T06:15:00.286Z,89
2018-11-23T06:20:00.393Z,87.9
2018-11-23T06:25:00.164Z,88.9
2018-11-23T06:30:00.010Z,88.8
2018-11-23T06:35:00.313Z,88.7
2018-11-23T06:40:00.071Z,88.7
2018-11-23T06:45:00.112Z,88.7
2018-11-23T06:50:00.058Z,88.8
2018-11-23T06:55:00.020Z,88.4
2018-11-23T07:00:00.320Z,87.8
2018-11-23T07:04:59.965Z,88.5
2018-11-23T07:10:00.544Z,89
2018-11-23T07:14:59.951Z,88.9
2018-11-23T07:20:00.148Z,89.3
2018-11-23T07:24:59.850Z,88.8
2018-11-23T07:30:00.345Z,89.1
2018-11-23T07:34:59.809Z,89
2018-11-23T07:39:59.876Z,88.5
2018-11-23T07:44:59.806Z,88.7
2018-11-23T07:50:00.022Z,87.8
2018-11-23T07:54:59.869Z,88
2018-11-23T08:00:00.066Z,87.7
2018-11-23T08:05:00.311Z,88.3
2018-11-23T08:09:59.970Z,88.6
2018-11-23T08:14:59.944Z,88.2
2018-11-23T08:19:59.943Z,88.2
2018-11-23T08:24:59.909Z,87.8
2018-11-23T08:30:00.068Z,88.6
2018-11-23T08:34:59.813Z,87.8
2018-11-23T08:39:59.936Z,87.4
2018-11-23T08:44:59.996Z,87.9
2018-11-23T08:49:59.832Z,87.8
2018-11-23T08:54:59.933Z,87.8
2018-11-23T08:59:59.936Z,86.2
2018-11-23T09:04:59.749Z,85.5
2018-11-23T09:09:59.883Z,85.2
2018-11-23T09:15:00.050Z,84.4
2018-11-23T09:20:00.012Z,83.7
2018-11-23T09:24:59.754Z,83.6
2018-11-23T09:29:59.923Z,82.9
2018-11-23T09:34:59.723Z,83.6
2018-11-23T09:39:59.796Z,83.5
2018-11-23T09:44:59.902Z,83.1
2018-11-23T09:49:59.728Z,84
2018-11-23T09:54:59.939Z,83.5
2018-11-23T09:59:59.882Z,83.7
2018-11-23T10:04:59.755Z,83.1
2018-11-23T10:09:59.658Z,82.9
2018-11-23T10:14:59.777Z,81.7
2018-11-23T10:19:59.959Z,82.2
2018-11-23T10:24:59.598Z,80.9
2018-11-23T10:29:59.961Z,81
2018-11-23T10:34:59.844Z,80.6
2018-11-23T10:39:59.587Z,80.2
2018-11-23T10:44:59.845Z,80.6
2018-11-23T10:49:59.856Z,79.9
2018-11-23T10:54:59.531Z,79.7
2018-11-23T10:59:59.942Z,80.1
2018-11-23T11:04:59.629Z,79.3
2018-11-23T11:09:59.847Z,79.5
2018-11-23T11:14:59.561Z,79.3
2018-11-23T11:19:59.882Z,79.1
2018-11-23T11:24:59.510Z,79.1
2018-11-23T11:29:59.758Z,78.9
2018-11-23T11:34:59.813Z,77.8
2018-11-23T11:39:59.485Z,76.9
2018-11-23T11:44:59.689Z,76.5
2018-11-23T11:49:59.730Z,75.6
2018-11-23T11:55:02.845Z,75.7
2018-11-23T12:00:00.013Z,74
2018-11-23T12:04:59.519Z,74.3
2018-11-23T12:09:59.482Z,72.3
2018-11-23T12:14:59.598Z,73.5
2018-11-23T12:19:59.474Z,74.3
2018-11-23T12:24:59.411Z,74.9
2018-11-23T12:29:59.753Z,74.3
2018-11-23T12:34:59.519Z,74.8
2018-11-23T12:39:59.432Z,75.7
2018-11-23T12:44:59.655Z,74.8
2018-11-23T12:49:59.395Z,74.7
2018-11-23T12:54:59.700Z,73.8
2018-11-23T12:59:59.419Z,73.6
2018-11-23T13:04:59.532Z,71.4
2018-11-23T13:09:59.413Z,72
2018-11-23T13:14:59.655Z,72
2018-11-23T13:19:59.328Z,73.3
2018-11-23T13:24:59.631Z,73.1
2018-11-23T13:29:59.691Z,73.4
2018-11-23T13:34:59.376Z,73.4
2018-11-23T13:39:59.423Z,73.7
2018-11-23T13:44:59.446Z,73.8
2018-11-23T13:49:59.490Z,74.6
2018-11-23T13:54:59.549Z,74.5
2018-11-23T13:59:59.604Z,74.6
2018-11-23T14:04:59.623Z,74.1
2018-11-23T14:09:59.389Z,74.7
2018-11-23T14:14:59.343Z,74.6
2018-11-23T14:20:00.042Z,73.9
2018-11-23T14:24:59.407Z,74.1
2018-11-23T14:29:59.408Z,73.5
2018-11-23T14:34:59.539Z,74.7
2018-11-23T14:39:59.400Z,75.2
2018-11-23T14:44:59.514Z,75
2018-11-23T14:49:59.424Z,76.3
2018-11-23T14:54:59.377Z,76.4
2018-11-23T14:59:59.335Z,77.6
2018-11-23T15:04:59.187Z,77.2
2018-11-23T15:09:59.417Z,77.5
2018-11-23T15:14:59.276Z,76.8
2018-11-23T15:19:59.322Z,76.5
2018-11-23T15:24:59.508Z,77.6
2018-11-23T15:29:59.307Z,78.2
2018-11-23T15:34:59.183Z,78.4
2018-11-23T15:44:59.315Z,79.4
2018-11-23T15:49:59.354Z,79.4
2018-11-23T15:54:59.348Z,79.3
2018-11-23T15:59:59.259Z,79.6
2018-11-23T16:04:59.338Z,79.1
2018-11-23T16:09:59.217Z,79.5
2018-11-23T16:14:59.186Z,79.3
2018-11-23T16:19:59.225Z,80
2018-11-23T16:24:59.348Z,79.9
2018-11-23T16:29:59.349Z,80
2018-11-23T16:34:59.304Z,79.7
2018-11-23T16:39:59.143Z,80.2
2018-11-23T16:44:59.247Z,80.5
2018-11-23T16:49:59.126Z,81
2018-11-23T16:54:59.256Z,80.9
2018-11-23T16:59:59.275Z,80.5
2018-11-23T17:04:59.098Z,80.1
2018-11-23T17:09:59.067Z,81.1
2018-11-23T17:14:59.004Z,81
2018-11-23T17:19:59.090Z,81.5
2018-11-23T17:24:59.145Z,80.7
2018-11-23T17:29:59.040Z,81.1
2018-11-23T17:34:59.191Z,80.8
2018-11-23T17:39:59.272Z,80.3
2018-11-23T17:44:59.168Z,80.6
2018-11-23T17:49:58.931Z,80.5
2018-11-23T17:54:59.200Z,80.3
2018-11-23T17:59:59.165Z,81
2018-11-23T18:04:58.955Z,81
2018-11-23T18:09:58.950Z,82.6
2018-11-23T18:14:59.193Z,82.3
2018-11-23T18:19:59.187Z,82.3
2018-11-23T18:24:58.935Z,82.1
2018-11-23T18:29:58.890Z,83.1
2018-11-23T18:34:59.009Z,83.6
2018-11-23T18:39:58.873Z,83.6
2018-11-23T18:44:59.041Z,83.7
2018-11-23T18:49:59.025Z,84.1
2018-11-23T18:54:59.057Z,84.5
2018-11-23T18:59:59.099Z,83.7
2018-11-23T19:04:59.100Z,84
2018-11-23T19:09:59.150Z,84
2018-11-23T19:14:58.865Z,84.1
2018-11-23T19:19:58.857Z,84.7
2018-11-23T19:24:58.778Z,85.6
2018-11-23T19:29:58.991Z,85.7
2018-11-23T19:34:59.093Z,84.6
2018-11-23T19:39:58.847Z,84.8
2018-11-23T19:44:58.809Z,84.8
2018-11-23T19:49:58.984Z,86
2018-11-23T19:54:58.764Z,86.1
2018-11-23T19:59:58.952Z,85.8
2018-11-23T20:04:58.809Z,86.4
2018-11-23T20:09:58.854Z,87
2018-11-23T20:14:58.750Z,87.1
2018-11-23T20:35:18.744Z,88.4
2018-11-23T20:40:12.877Z,89.1
2018-11-23T20:45:12.932Z,88.9
2018-11-23T20:50:13.347Z,88.3
2018-11-23T20:55:13.059Z,88.7
2018-11-23T21:00:13.597Z,89
2018-11-23T21:05:13.165Z,88.7
2018-11-23T21:10:20.033Z,89.5
2018-11-23T21:15:12.705Z,89.3
2018-11-23T21:20:12.988Z,89.4
2018-11-23T21:25:13.393Z,88.8
2018-11-23T21:30:13.728Z,88.6
2018-11-23T21:35:13.017Z,88.5
2018-11-23T21:40:12.878Z,88.4
2018-11-23T21:45:12.900Z,88.4
2018-11-23T21:50:13.139Z,87.8
2018-11-23T21:55:12.896Z,87.8
2018-11-23T22:00:13.179Z,87.7
2018-11-23T22:05:12.676Z,88.2
2018-11-23T22:10:12.988Z,88.4
2018-11-23T22:15:13.069Z,88.4
2018-11-23T22:20:12.893Z,88.4
2018-11-23T22:25:12.939Z,89.4
2018-11-23T22:30:12.797Z,89
2018-11-23T22:35:12.698Z,89.9
2018-11-23T22:40:12.627Z,90.1
2018-11-23T22:45:12.754Z,90.8
2018-11-23T22:50:12.870Z,90.5
2018-11-23T22:55:12.906Z,90.7
2018-11-23T23:00:13.047Z,91.2
2018-11-23T23:05:13.001Z,90.6
2018-11-23T23:10:12.751Z,90.6
2018-11-23T23:15:12.747Z,90.8
2018-11-23T23:20:12.895Z,90.5
2018-11-23T23:25:12.824Z,91.4
2018-11-23T23:30:12.904Z,91.4
2018-11-23T23:35:12.689Z,92.4
2018-11-23T23:40:12.901Z,92.3
2018-11-23T23:45:12.932Z,92.3
2018-11-23T23:50:12.777Z,92.5
2018-11-23T23:55:12.836Z,92.6
